Pagina principale
METAR-TAF:

METAR-TAF

Aeroporti :

Aerodromo Hinterstoisser-Zeltweg

Zeltweg, Austria

latitudine: 47-12N, longitudine: 014-45E, altezza: 677 m

Osservazione

Il bollettino è stato emesso 35 minuti fa, alle 02:50 UTC
Vento 19 kt da ovest
Temperature 12°C
Umidità 58%
Pressione 1014 hPa

METAR: LOXZ 240250Z 27019KT 20KM FEW040SC BKN070SC 12/04 Q1014

Ora: 04:25 (03:25 UTC)

Previsione

Il bollettino è stato emesso 16 ore e 10 minuti fa, alle 11:15 UTC
Previsione valida dal 23 alle 12 UTC al 23 alle 21 UTC
Vento 3 kt da direzioni variabili
Visibilità 10 km o più
Nuvoloso ad un'altezza di 7000 ft
Temporaneamente
dal 23 alle 14 UTC al 23 alle 18 UTC
Vento 12 kt da ovest

TAF: LOXZ 231115Z 2312/2321 VRB03KT 9999 BKN070 TEMPO 2314/2318 28012KT

Osservazioni e previsioni meteorologiche di più di 4000 aeroporti (messaggi METAR e TAF).

Le stazioni disponibili sono rappresentate dai dischi gialli e rossi sulla carta.

Puntare il mouse per vedere il nome della stazione.

Clicca sopra per visualizzare le osservazioni e previsioni meteorologiche.

Per cambiare la mappa : fare clic sui pulsanti verdi con una croce nera per ingrandire, il pulsante verde con un trattino per diminuire, o sulla freccia verde per le mappe adiacenti.


METAR-TAF: